createdAt,value
2017-01-03T00:00:08.742Z,0.45
2017-01-03T00:00:30.488Z,0.46
2017-01-03T00:00:53.238Z,0.46
2017-01-03T00:01:16.015Z,0.47
2017-01-03T00:02:04.288Z,0.49
2017-01-03T00:02:26.028Z,0.51
2017-01-03T00:02:47.786Z,0.51
2017-01-03T00:03:14.309Z,0.54
2017-01-03T00:03:36.089Z,0.55
2017-01-03T00:03:57.933Z,0.56
2017-01-03T00:04:19.663Z,0.57
2017-01-03T00:04:41.461Z,0.59
2017-01-03T00:05:03.290Z,0.59
2017-01-03T00:05:25.129Z,0.59
2017-01-03T00:05:46.880Z,0.60
2017-01-03T00:06:36.128Z,0.62
2017-01-03T00:06:57.882Z,0.62
2017-01-03T00:07:24.387Z,0.63
2017-01-03T00:07:46.120Z,0.64
2017-01-03T00:08:07.901Z,0.65
2017-01-03T00:08:29.650Z,0.67
2017-01-03T00:09:18.246Z,0.67
2017-01-03T00:09:40.313Z,0.66
2017-01-03T00:10:06.629Z,0.68
2017-01-03T00:10:28.378Z,0.67
2017-01-03T00:10:50.130Z,0.69
2017-01-03T00:11:11.887Z,0.70
2017-01-03T00:11:34.656Z,0.71
2017-01-03T00:11:56.415Z,0.72
2017-01-03T00:12:18.168Z,0.73
2017-01-03T00:12:50.435Z,0.74
2017-01-03T00:13:16.970Z,0.74
2017-01-03T00:13:38.726Z,0.74
2017-01-03T00:14:00.490Z,0.73
2017-01-03T00:14:22.237Z,0.74
2017-01-03T00:14:43.997Z,0.73
2017-01-03T00:15:05.796Z,0.75
2017-01-03T00:15:27.548Z,0.77
2017-01-03T00:15:50.310Z,0.77
2017-01-03T00:16:12.020Z,0.76
2017-01-03T00:16:33.786Z,0.75
2017-01-03T00:16:56.567Z,0.75
2017-01-03T00:17:44.848Z,0.75
2017-01-03T00:18:06.608Z,0.74
2017-01-03T00:18:29.350Z,0.74
2017-01-03T00:18:51.110Z,0.75
2017-01-03T00:19:12.879Z,0.74
2017-01-03T00:19:35.628Z,0.75
2017-01-03T00:20:02.144Z,0.75
2017-01-03T00:20:23.888Z,0.75
2017-01-03T00:20:45.637Z,0.75
2017-01-03T00:21:12.160Z,0.76
2017-01-03T00:21:33.918Z,0.73
2017-01-03T00:21:55.680Z,0.73
2017-01-03T00:22:17.422Z,0.73
2017-01-03T00:22:39.450Z,0.72
2017-01-03T00:23:01.215Z,0.70
2017-01-03T00:23:27.719Z,0.67
2017-01-03T00:23:49.469Z,0.67
2017-01-03T00:24:11.224Z,0.66
2017-01-03T00:24:59.488Z,0.63
2017-01-03T00:25:21.238Z,0.62
2017-01-03T00:25:42.998Z,0.60
2017-01-03T00:26:04.775Z,0.59
2017-01-03T00:26:26.541Z,0.59
2017-01-03T00:26:48.305Z,0.58
2017-01-03T00:27:10.044Z,0.56
2017-01-03T00:27:31.810Z,0.55
2017-01-03T00:27:53.553Z,0.55
2017-01-03T00:28:15.306Z,0.54
2017-01-03T00:28:37.081Z,0.52
2017-01-03T00:28:58.843Z,0.50
2017-01-03T00:29:20.625Z,0.50
2017-01-03T00:29:42.378Z,0.49
2017-01-03T00:30:05.146Z,0.50
2017-01-03T00:30:26.891Z,0.51
2017-01-03T00:30:48.638Z,0.49
2017-01-03T00:31:10.426Z,0.50
2017-01-03T00:31:36.951Z,0.50
2017-01-03T00:31:58.736Z,0.50
2017-01-03T00:32:20.491Z,0.49
2017-01-03T00:33:08.788Z,0.49
2017-01-03T00:33:30.651Z,0.49
2017-01-03T00:33:52.727Z,0.49
2017-01-03T00:34:45.953Z,0.48
2017-01-03T00:35:07.696Z,0.47
2017-01-03T00:35:29.450Z,0.46
2017-01-03T00:35:51.185Z,0.45
2017-01-03T00:36:12.970Z,0.43
2017-01-03T00:36:34.740Z,0.43
2017-01-03T00:36:56.477Z,0.41
2017-01-03T00:37:22.987Z,0.42
2017-01-03T00:37:49.491Z,0.40
2017-01-03T00:38:11.268Z,0.41
2017-01-03T00:38:33.002Z,0.40
2017-01-03T00:38:54.781Z,0.40
2017-01-03T00:39:16.545Z,0.41
2017-01-03T00:39:39.296Z,0.41
2017-01-03T00:40:01.041Z,0.41
2017-01-03T00:40:22.800Z,0.41
2017-01-03T00:40:44.539Z,0.41
2017-01-03T00:41:11.051Z,0.41
2017-01-03T00:41:32.791Z,0.40
2017-01-03T00:41:54.581Z,0.38
2017-01-03T00:42:16.458Z,0.36
2017-01-03T00:42:38.510Z,0.37
2017-01-03T00:43:05.016Z,0.38
2017-01-03T00:43:26.794Z,0.37
2017-01-03T00:44:15.066Z,0.37
2017-01-03T00:44:36.809Z,0.35
2017-01-03T00:44:58.567Z,0.35
2017-01-03T00:45:21.327Z,0.36
2017-01-03T00:45:43.083Z,0.36
2017-01-03T00:46:04.848Z,0.38
2017-01-03T00:46:26.608Z,0.38
2017-01-03T00:46:48.363Z,0.37
2017-01-03T00:47:10.151Z,0.37
2017-01-03T00:47:32.925Z,0.38
2017-01-03T00:47:54.690Z,0.38
2017-01-03T00:48:16.571Z,0.38
2017-01-03T00:48:38.330Z,0.36
2017-01-03T00:49:04.849Z,0.35
2017-01-03T00:49:26.604Z,0.35
2017-01-03T00:49:53.125Z,0.34
2017-01-03T00:50:19.650Z,0.34
2017-01-03T00:50:41.412Z,0.33
2017-01-03T00:51:07.919Z,0.31
2017-01-03T00:51:34.439Z,0.31
2017-01-03T00:51:56.188Z,0.31
2017-01-03T00:52:18.963Z,0.31
2017-01-03T00:52:40.693Z,0.30
2017-01-03T00:53:02.512Z,0.31
2017-01-03T00:53:24.244Z,0.30
2017-01-03T00:53:46.000Z,0.28
2017-01-03T00:54:07.739Z,0.27
2017-01-03T00:54:29.649Z,0.27
2017-01-03T00:54:51.705Z,0.27
2017-01-03T00:55:13.601Z,0.26
2017-01-03T00:55:35.432Z,0.26
2017-01-03T00:55:57.226Z,0.24
2017-01-03T00:56:19.291Z,0.24
2017-01-03T00:56:41.424Z,0.21
2017-01-03T00:57:29.760Z,0.20
2017-01-03T00:57:51.546Z,0.19
2017-01-03T00:58:13.298Z,0.18
2017-01-03T00:58:39.800Z,0.18
2017-01-03T00:59:01.602Z,0.17
2017-01-03T00:59:28.113Z,0.16
2017-01-03T00:59:49.986Z,0.16
2017-01-03T01:00:12.178Z,0.15
2017-01-03T01:01:00.452Z,0.14
2017-01-03T01:01:22.182Z,0.13
2017-01-03T01:01:43.931Z,0.12
2017-01-03T01:02:06.676Z,0.12
2017-01-03T01:02:28.641Z,0.11
2017-01-03T01:02:50.539Z,0.11
2017-01-03T01:03:12.545Z,0.11
2017-01-03T01:03:34.386Z,0.11
2017-01-03T01:03:56.450Z,0.10
2017-01-03T01:04:18.226Z,0.12
2017-01-03T01:04:39.981Z,0.11
2017-01-03T01:05:28.216Z,0.09
2017-01-03T01:05:49.964Z,0.09
2017-01-03T01:06:11.700Z,0.09
2017-01-03T01:06:36.171Z,0.11
2017-01-03T01:06:57.918Z,0.13
2017-01-03T01:07:19.679Z,0.14
2017-01-03T01:07:46.200Z,0.14
2017-01-03T01:08:08.984Z,0.13
2017-01-03T01:08:30.731Z,0.12
2017-01-03T01:08:52.484Z,0.14
2017-01-03T01:09:14.228Z,0.13
2017-01-03T01:10:02.487Z,0.13
2017-01-03T01:10:24.292Z,0.14
2017-01-03T01:10:46.047Z,0.11
2017-01-03T01:11:07.805Z,0.10
2017-01-03T01:11:29.587Z,0.12
2017-01-03T01:11:51.352Z,0.13
2017-01-03T01:12:13.103Z,0.12
2017-01-03T01:12:34.860Z,0.13
2017-01-03T01:12:56.618Z,0.14
2017-01-03T01:13:18.376Z,0.14
2017-01-03T01:13:40.143Z,0.14
2017-01-03T01:14:01.940Z,0.14
2017-01-03T01:14:25.084Z,0.16
2017-01-03T01:15:14.406Z,0.13
2017-01-03T01:15:41.928Z,0.12
2017-01-03T01:16:03.685Z,0.12
2017-01-03T01:16:30.321Z,0.12
2017-01-03T01:16:51.970Z,0.11
2017-01-03T01:17:13.724Z,0.12
2017-01-03T01:17:35.494Z,0.15
2017-01-03T01:17:57.247Z,0.15
2017-01-03T01:18:19.002Z,0.16
2017-01-03T01:18:40.761Z,0.17
2017-01-03T01:19:02.535Z,0.18
2017-01-03T01:19:24.293Z,0.17
2017-01-03T01:19:46.047Z,0.18
2017-01-03T01:20:17.326Z,0.19
2017-01-03T01:20:39.083Z,0.19
2017-01-03T01:21:00.833Z,0.20
2017-01-03T01:21:22.585Z,0.20
2017-01-03T01:21:44.481Z,0.19
2017-01-03T01:22:06.235Z,0.24
2017-01-03T01:22:27.990Z,0.22
2017-01-03T01:23:19.260Z,0.23
2017-01-03T01:23:41.012Z,0.24
2017-01-03T01:24:03.772Z,0.25
2017-01-03T01:24:26.569Z,0.25
2017-01-03T01:24:48.324Z,0.23
2017-01-03T01:25:10.193Z,0.25
2017-01-03T01:25:31.938Z,0.24
2017-01-03T01:25:53.707Z,0.23
2017-01-03T01:26:15.474Z,0.22
2017-01-03T01:26:38.233Z,0.23
2017-01-03T01:26:59.987Z,0.23
2017-01-03T01:27:21.743Z,0.23
2017-01-03T01:27:43.489Z,0.23
2017-01-03T01:28:05.231Z,0.24
2017-01-03T01:28:26.994Z,0.23
2017-01-03T01:28:48.769Z,0.24
2017-01-03T01:29:10.569Z,0.23
2017-01-03T01:29:35.176Z,0.24
2017-01-03T01:29:56.954Z,0.25
2017-01-03T01:30:18.725Z,0.24
2017-01-03T01:30:40.472Z,0.25
2017-01-03T01:31:02.242Z,0.26
2017-01-03T01:31:24.991Z,0.26
2017-01-03T01:31:46.789Z,0.26
2017-01-03T01:32:08.532Z,0.25
2017-01-03T01:33:01.570Z,0.23
2017-01-03T01:33:32.844Z,0.20
2017-01-03T01:33:54.586Z,0.20
2017-01-03T01:34:16.331Z,0.21
2017-01-03T01:34:38.263Z,0.20
2017-01-03T01:35:00.315Z,0.21
2017-01-03T01:35:22.069Z,0.22
2017-01-03T01:35:43.823Z,0.24
2017-01-03T01:36:05.602Z,0.23
2017-01-03T01:36:32.140Z,0.21
2017-01-03T01:36:58.638Z,0.19
2017-01-03T01:37:20.386Z,0.17
2017-01-03T01:37:42.498Z,0.19
2017-01-03T01:38:04.410Z,0.19
2017-01-03T01:38:26.153Z,0.20
2017-01-03T01:38:47.914Z,0.20
2017-01-03T01:39:09.668Z,0.21
2017-01-03T01:39:32.421Z,0.21
2017-01-03T01:39:54.174Z,0.24
2017-01-03T01:40:15.918Z,0.23
2017-01-03T01:40:37.675Z,0.22
2017-01-03T01:40:59.494Z,0.22
2017-01-03T01:41:22.259Z,0.22
2017-01-03T01:41:44.007Z,0.21
2017-01-03T01:42:05.780Z,0.20
2017-01-03T01:42:27.531Z,0.21
2017-01-03T01:42:49.289Z,0.21
2017-01-03T01:43:11.035Z,0.21
2017-01-03T01:43:37.556Z,0.21
2017-01-03T01:43:59.307Z,0.19
2017-01-03T01:44:21.079Z,0.19
2017-01-03T01:44:42.834Z,0.19
2017-01-03T01:45:04.590Z,0.21
2017-01-03T01:45:26.338Z,0.24
2017-01-03T01:45:49.128Z,0.22
2017-01-03T01:46:10.907Z,0.21
2017-01-03T01:46:33.688Z,0.22
2017-01-03T01:46:55.435Z,0.24
2017-01-03T01:47:17.197Z,0.24
2017-01-03T01:47:38.945Z,0.22
2017-01-03T01:48:00.757Z,0.21
2017-01-03T01:48:23.507Z,0.19
2017-01-03T01:48:45.267Z,0.19
2017-01-03T01:49:07.009Z,0.19
2017-01-03T01:49:28.856Z,0.19
2017-01-03T01:49:50.791Z,0.18
2017-01-03T01:50:12.836Z,0.18
2017-01-03T01:50:35.137Z,0.19
2017-01-03T01:50:57.262Z,0.19
2017-01-03T01:51:19.601Z,0.18
2017-01-03T01:51:41.400Z,0.20
2017-01-03T01:52:04.152Z,0.17
2017-01-03T01:52:28.595Z,0.16
2017-01-03T01:52:50.393Z,0.16
2017-01-03T01:53:12.150Z,0.17
2017-01-03T01:53:33.923Z,0.17
2017-01-03T01:53:55.667Z,0.18
2017-01-03T01:54:17.416Z,0.18
2017-01-03T01:54:40.169Z,0.16
2017-01-03T01:55:01.921Z,0.15
2017-01-03T01:55:23.677Z,0.18
2017-01-03T01:55:45.427Z,0.17
2017-01-03T01:56:10.951Z,0.15
2017-01-03T01:56:32.718Z,0.13
2017-01-03T01:56:54.483Z,0.14
2017-01-03T01:57:16.308Z,0.15
2017-01-03T01:57:38.054Z,0.12
2017-01-03T01:58:03.604Z,0.13
2017-01-03T01:58:25.376Z,0.12
2017-01-03T01:58:47.227Z,0.12
2017-01-03T01:59:13.728Z,0.14
2017-01-03T01:59:35.482Z,0.13
2017-01-03T01:59:57.248Z,0.14
2017-01-03T02:00:18.980Z,0.16
2017-01-03T02:00:40.740Z,0.17
2017-01-03T02:01:02.486Z,0.19
2017-01-03T02:01:24.563Z,0.21
2017-01-03T02:01:46.317Z,0.19
2017-01-03T02:02:08.182Z,0.20
2017-01-03T02:02:34.686Z,0.19
2017-01-03T02:02:56.436Z,0.21
2017-01-03T02:03:18.193Z,0.20
2017-01-03T02:03:40.924Z,0.22
2017-01-03T02:04:02.886Z,0.20
2017-01-03T02:04:25.626Z,0.22
2017-01-03T02:04:47.366Z,0.22
2017-01-03T02:05:09.105Z,0.23
2017-01-03T02:05:30.849Z,0.25
2017-01-03T02:05:53.600Z,0.25
2017-01-03T02:06:15.364Z,0.27
2017-01-03T02:06:37.116Z,0.28
2017-01-03T02:06:58.870Z,0.28
2017-01-03T02:07:20.621Z,0.30
2017-01-03T02:07:42.376Z,0.31
2017-01-03T02:08:04.138Z,0.33
2017-01-03T02:08:26.074Z,0.34
2017-01-03T02:08:47.821Z,0.36
2017-01-03T02:09:10.566Z,0.36
2017-01-03T02:09:33.491Z,0.34
2017-01-03T02:09:55.240Z,0.33
2017-01-03T02:10:17.137Z,0.33
2017-01-03T02:10:38.874Z,0.35
2017-01-03T02:11:00.628Z,0.36
2017-01-03T02:11:23.411Z,0.36
2017-01-03T02:11:45.150Z,0.36
2017-01-03T02:12:06.899Z,0.36
2017-01-03T02:12:28.730Z,0.38
2017-01-03T02:12:50.461Z,0.39
2017-01-03T02:13:12.243Z,0.39
2017-01-03T02:13:34.003Z,0.40
2017-01-03T02:14:00.530Z,0.39
2017-01-03T02:14:22.376Z,0.39
2017-01-03T02:14:44.123Z,0.40
2017-01-03T02:15:06.868Z,0.40
2017-01-03T02:15:28.644Z,0.40
2017-01-03T02:15:50.407Z,0.42
2017-01-03T02:16:12.144Z,0.42
2017-01-03T02:16:33.890Z,0.43
2017-01-03T02:16:55.667Z,0.43
2017-01-03T02:17:17.437Z,0.42
2017-01-03T02:17:39.188Z,0.44
2017-01-03T02:18:01.079Z,0.45
2017-01-03T02:18:24.395Z,0.45
2017-01-03T02:18:46.151Z,0.45
2017-01-03T02:19:07.889Z,0.45
2017-01-03T02:19:35.447Z,0.45
2017-01-03T02:19:57.193Z,0.45
2017-01-03T02:20:18.952Z,0.45
2017-01-03T02:20:40.695Z,0.45
2017-01-03T02:21:07.441Z,0.44
2017-01-03T02:21:29.252Z,0.46
2017-01-03T02:21:50.987Z,0.45
2017-01-03T02:22:12.748Z,0.45
2017-01-03T02:22:34.517Z,0.44
2017-01-03T02:22:56.269Z,0.43
2017-01-03T02:23:18.015Z,0.41
2017-01-03T02:23:44.517Z,0.40
2017-01-03T02:24:07.300Z,0.41
2017-01-03T02:24:29.044Z,0.41
2017-01-03T02:24:50.795Z,0.41
2017-01-03T02:25:12.542Z,0.39
2017-01-03T02:25:34.283Z,0.39
2017-01-03T02:25:56.066Z,0.39
2017-01-03T02:26:17.812Z,0.40
2017-01-03T02:26:44.344Z,0.40
2017-01-03T02:27:06.232Z,0.40
2017-01-03T02:27:27.979Z,0.41
2017-01-03T02:27:49.739Z,0.40
2017-01-03T02:28:11.489Z,0.40
2017-01-03T02:28:38.263Z,0.41
2017-01-03T02:29:01.125Z,0.41
2017-01-03T02:29:23.940Z,0.40
2017-01-03T02:29:45.807Z,0.40
2017-01-03T02:30:07.606Z,0.42
2017-01-03T02:30:29.374Z,0.39
2017-01-03T02:30:51.114Z,0.40
2017-01-03T02:31:12.871Z,0.41
2017-01-03T02:31:34.647Z,0.41
2017-01-03T02:31:56.397Z,0.42
2017-01-03T02:32:18.143Z,0.42
2017-01-03T02:32:44.708Z,0.44
2017-01-03T02:33:06.437Z,0.43
2017-01-03T02:33:28.213Z,0.43
2017-01-03T02:33:50.103Z,0.41
2017-01-03T02:34:11.849Z,0.43
2017-01-03T02:34:33.589Z,0.43
2017-01-03T02:34:55.335Z,0.44
2017-01-03T02:35:17.105Z,0.46
2017-01-03T02:35:38.858Z,0.44
2017-01-03T02:36:00.626Z,0.45
2017-01-03T02:36:22.521Z,0.44
2017-01-03T02:36:49.458Z,0.44
2017-01-03T02:37:11.396Z,0.43
2017-01-03T02:38:00.072Z,0.48
2017-01-03T02:38:21.835Z,0.49
2017-01-03T02:38:43.585Z,0.50
2017-01-03T02:39:05.340Z,0.48
2017-01-03T02:39:53.628Z,0.47
2017-01-03T02:40:20.132Z,0.49
2017-01-03T02:40:41.876Z,0.48
2017-01-03T02:41:06.582Z,0.47
2017-01-03T02:41:28.343Z,0.47
2017-01-03T02:41:50.104Z,0.45
2017-01-03T02:42:12.837Z,0.46
2017-01-03T02:42:34.597Z,0.46
2017-01-03T02:42:56.334Z,0.49
2017-01-03T02:43:21.068Z,0.49
2017-01-03T02:43:42.818Z,0.50
2017-01-03T02:44:04.607Z,0.48
2017-01-03T02:44:31.141Z,0.49
2017-01-03T02:44:52.876Z,0.50
2017-01-03T02:45:14.639Z,0.51
2017-01-03T02:45:36.399Z,0.51
2017-01-03T02:45:58.130Z,0.49
2017-01-03T02:46:19.900Z,0.51
2017-01-03T02:46:41.652Z,0.52
2017-01-03T02:47:03.407Z,0.53
2017-01-03T02:47:29.909Z,0.51
2017-01-03T02:47:51.656Z,0.52
2017-01-03T02:48:13.400Z,0.52
2017-01-03T02:48:35.141Z,0.54
2017-01-03T02:48:57.896Z,0.55
2017-01-03T02:49:19.645Z,0.57
2017-01-03T02:49:41.400Z,0.55
2017-01-03T02:50:03.145Z,0.54
2017-01-03T02:50:24.899Z,0.54
2017-01-03T02:50:46.654Z,0.56
2017-01-03T02:51:08.395Z,0.56
2017-01-03T02:51:30.225Z,0.55
2017-01-03T02:51:52.297Z,0.55
2017-01-03T02:52:14.035Z,0.54
2017-01-03T02:52:35.786Z,0.53
2017-01-03T02:52:57.529Z,0.53
2017-01-03T02:53:19.289Z,0.53
2017-01-03T02:53:41.028Z,0.53
2017-01-03T02:54:02.777Z,0.53
2017-01-03T02:54:29.289Z,0.53
2017-01-03T02:54:51.049Z,0.53
2017-01-03T02:55:12.799Z,0.55
2017-01-03T02:55:34.538Z,0.56
2017-01-03T02:55:56.277Z,0.54
2017-01-03T02:56:18.026Z,0.55
2017-01-03T02:56:39.765Z,0.55
2017-01-03T02:57:01.705Z,0.56
2017-01-03T02:57:28.307Z,0.56
2017-01-03T02:57:59.579Z,0.56
2017-01-03T02:58:21.392Z,0.55
2017-01-03T02:58:43.141Z,0.56
2017-01-03T02:59:04.883Z,0.57
2017-01-03T02:59:58.918Z,0.61
2017-01-03T03:00:20.692Z,0.59
2017-01-03T03:00:42.448Z,0.57
2017-01-03T03:01:04.188Z,0.55
2017-01-03T03:01:25.949Z,0.53
2017-01-03T03:01:47.696Z,0.53
2017-01-03T03:02:10.610Z,0.53
2017-01-03T03:02:40.188Z,0.52
2017-01-03T03:03:02.393Z,0.51
2017-01-03T03:03:24.713Z,0.51
2017-01-03T03:03:46.495Z,0.51
2017-01-03T03:04:08.236Z,0.49
2017-01-03T03:04:30.003Z,0.49
2017-01-03T03:04:51.769Z,0.49
2017-01-03T03:05:18.276Z,0.49
2017-01-03T03:05:40.034Z,0.50
2017-01-03T03:06:01.766Z,0.48
2017-01-03T03:06:23.520Z,0.48
2017-01-03T03:06:45.333Z,0.49
2017-01-03T03:07:07.069Z,0.49
2017-01-03T03:07:28.825Z,0.48
2017-01-03T03:08:17.104Z,0.49
2017-01-03T03:08:38.852Z,0.48
2017-01-03T03:09:00.614Z,0.48
2017-01-03T03:09:48.870Z,0.48
2017-01-03T03:10:10.619Z,0.47
2017-01-03T03:10:37.481Z,0.48
2017-01-03T03:11:27.028Z,0.50
2017-01-03T03:11:48.781Z,0.48
2017-01-03T03:12:20.058Z,0.49
2017-01-03T03:12:41.811Z,0.49
2017-01-03T03:13:03.584Z,0.50
2017-01-03T03:13:25.332Z,0.50
2017-01-03T03:13:51.844Z,0.54
2017-01-03T03:14:13.600Z,0.51
2017-01-03T03:14:35.346Z,0.51
2017-01-03T03:14:57.161Z,0.51
2017-01-03T03:15:18.908Z,0.52
2017-01-03T03:15:40.697Z,0.52
2017-01-03T03:16:02.582Z,0.52
2017-01-03T03:16:26.947Z,0.52
2017-01-03T03:16:53.471Z,0.53
2017-01-03T03:17:15.210Z,0.54
2017-01-03T03:17:36.966Z,0.54
2017-01-03T03:17:58.725Z,0.54
2017-01-03T03:18:20.478Z,0.54
2017-01-03T03:18:42.227Z,0.55
2017-01-03T03:19:03.986Z,0.54
2017-01-03T03:19:25.751Z,0.54
2017-01-03T03:19:51.037Z,0.53
2017-01-03T03:20:13.226Z,0.54
2017-01-03T03:20:36.127Z,0.54
2017-01-03T03:20:57.885Z,0.55
2017-01-03T03:21:19.659Z,0.53
2017-01-03T03:21:42.409Z,0.52
2017-01-03T03:22:04.212Z,0.52
2017-01-03T03:22:25.965Z,0.52
2017-01-03T03:22:47.727Z,0.51
2017-01-03T03:23:09.525Z,0.50
2017-01-03T03:23:31.325Z,0.50
2017-01-03T03:23:53.068Z,0.51
2017-01-03T03:24:15.052Z,0.49
2017-01-03T03:24:37.107Z,0.48
2017-01-03T03:24:59.453Z,0.49
2017-01-03T03:25:21.436Z,0.46
2017-01-03T03:25:43.181Z,0.47
2017-01-03T03:26:31.491Z,0.46
2017-01-03T03:26:58.001Z,0.42
2017-01-03T03:27:19.744Z,0.42
2017-01-03T03:27:41.497Z,0.42
2017-01-03T03:28:03.405Z,0.40
2017-01-03T03:28:51.798Z,0.38
2017-01-03T03:29:13.932Z,0.38
2017-01-03T03:29:40.611Z,0.39
2017-01-03T03:30:02.353Z,0.39
2017-01-03T03:30:24.094Z,0.39
2017-01-03T03:30:45.857Z,0.38
2017-01-03T03:31:07.670Z,0.38
2017-01-03T03:31:34.189Z,0.36
2017-01-03T03:31:56.125Z,0.37
2017-01-03T03:32:18.275Z,0.36
2017-01-03T03:32:40.413Z,0.38
2017-01-03T03:33:02.343Z,0.41
2017-01-03T03:33:24.100Z,0.39
2017-01-03T03:33:45.869Z,0.38
2017-01-03T03:34:08.653Z,0.39
2017-01-03T03:34:30.409Z,0.39
2017-01-03T03:34:52.157Z,0.38
2017-01-03T03:35:14.141Z,0.35
2017-01-03T03:35:40.743Z,0.33
2017-01-03T03:36:02.490Z,0.34
2017-01-03T03:36:30.000Z,0.32
2017-01-03T03:36:51.775Z,0.32
2017-01-03T03:37:13.521Z,0.33
2017-01-03T03:37:35.282Z,0.32
2017-01-03T03:37:58.088Z,0.30
2017-01-03T03:38:19.780Z,0.28
2017-01-03T03:38:41.563Z,0.26
2017-01-03T03:39:03.315Z,0.26
2017-01-03T03:39:25.070Z,0.23
2017-01-03T03:39:46.829Z,0.25
2017-01-03T03:40:08.578Z,0.24
2017-01-03T03:40:35.089Z,0.26
2017-01-03T03:40:56.847Z,0.24
2017-01-03T03:41:18.594Z,0.26
2017-01-03T03:41:44.017Z,0.24
2017-01-03T03:42:06.772Z,0.25
2017-01-03T03:42:28.529Z,0.26
2017-01-03T03:42:50.296Z,0.26
2017-01-03T03:43:12.043Z,0.26
2017-01-03T03:43:33.777Z,0.27
2017-01-03T03:44:00.287Z,0.28
2017-01-03T03:44:22.046Z,0.28
2017-01-03T03:44:43.793Z,0.30
2017-01-03T03:45:05.556Z,0.31
2017-01-03T03:45:27.297Z,0.28
2017-01-03T03:45:49.044Z,0.28
2017-01-03T03:46:10.790Z,0.28
2017-01-03T03:46:32.545Z,0.28
2017-01-03T03:46:54.304Z,0.31
2017-01-03T03:47:16.065Z,0.31
2017-01-03T03:47:37.819Z,0.31
2017-01-03T03:47:59.583Z,0.29
2017-01-03T03:48:21.326Z,0.27
2017-01-03T03:48:43.089Z,0.27
2017-01-03T03:49:04.824Z,0.25
2017-01-03T03:49:26.571Z,0.23
2017-01-03T03:49:48.321Z,0.22
2017-01-03T03:50:10.072Z,0.24
2017-01-03T03:50:31.832Z,0.21
2017-01-03T03:50:53.662Z,0.23
2017-01-03T03:51:15.396Z,0.24
2017-01-03T03:51:37.153Z,0.24
2017-01-03T03:51:58.922Z,0.24
2017-01-03T03:52:20.684Z,0.24
2017-01-03T03:52:43.473Z,0.22
2017-01-03T03:53:05.233Z,0.20
2017-01-03T03:53:31.752Z,0.18
2017-01-03T03:53:53.518Z,0.18
2017-01-03T03:54:15.368Z,0.18
2017-01-03T03:54:37.361Z,0.18
2017-01-03T03:54:59.359Z,0.19
2017-01-03T03:55:21.495Z,0.17
2017-01-03T03:55:44.462Z,0.17
2017-01-03T03:56:06.516Z,0.16
2017-01-03T03:56:28.315Z,0.15
2017-01-03T03:56:50.065Z,0.17
2017-01-03T03:57:11.819Z,0.18
2017-01-03T03:57:33.578Z,0.16
2017-01-03T03:57:55.338Z,0.17
2017-01-03T03:58:17.096Z,0.18
2017-01-03T03:58:38.874Z,0.18
2017-01-03T03:59:00.626Z,0.18
2017-01-03T03:59:23.386Z,0.20
2017-01-03T03:59:45.143Z,0.20
2017-01-03T04:00:06.884Z,0.21
2017-01-03T04:00:28.640Z,0.23
2017-01-03T04:00:50.381Z,0.23
2017-01-03T04:01:12.139Z,0.25
2017-01-03T04:01:33.886Z,0.27
2017-01-03T04:01:55.671Z,0.27
2017-01-03T04:02:17.434Z,0.27
2017-01-03T04:02:39.198Z,0.27
2017-01-03T04:03:00.930Z,0.25
2017-01-03T04:03:22.677Z,0.28
2017-01-03T04:03:44.500Z,0.30
2017-01-03T04:04:06.232Z,0.28
2017-01-03T04:04:27.972Z,0.28
2017-01-03T04:04:49.736Z,0.27
2017-01-03T04:05:11.480Z,0.28
2017-01-03T04:05:33.228Z,0.26
2017-01-03T04:05:54.983Z,0.24
2017-01-03T04:06:16.933Z,0.24
2017-01-03T04:06:38.666Z,0.23
2017-01-03T04:07:00.415Z,0.25
2017-01-03T04:07:23.173Z,0.25
2017-01-03T04:07:44.935Z,0.28
2017-01-03T04:08:06.690Z,0.30
2017-01-03T04:08:28.439Z,0.32
2017-01-03T04:08:50.188Z,0.33
2017-01-03T04:09:16.693Z,0.33
2017-01-03T04:09:38.473Z,0.31
2017-01-03T04:10:00.231Z,0.28
2017-01-03T04:10:21.976Z,0.27
2017-01-03T04:10:43.723Z,0.28
2017-01-03T04:11:06.460Z,0.28
2017-01-03T04:11:28.241Z,0.28
2017-01-03T04:11:49.976Z,0.28
2017-01-03T04:12:11.731Z,0.30
2017-01-03T04:12:34.485Z,0.32
2017-01-03T04:12:56.233Z,0.32
2017-01-03T04:13:17.977Z,0.34
2017-01-03T04:13:44.511Z,0.35
2017-01-03T04:14:06.284Z,0.38
2017-01-03T04:14:54.564Z,0.42
2017-01-03T04:15:16.296Z,0.43
2017-01-03T04:15:42.805Z,0.44
2017-01-03T04:16:04.561Z,0.43
2017-01-03T04:16:26.303Z,0.42
2017-01-03T04:16:48.050Z,0.41
2017-01-03T04:17:12.540Z,0.41
2017-01-03T04:17:39.055Z,0.40
2017-01-03T04:18:00.801Z,0.39
2017-01-03T04:18:22.552Z,0.38
2017-01-03T04:18:44.313Z,0.38
2017-01-03T04:19:06.085Z,0.37
2017-01-03T04:19:27.828Z,0.36
2017-01-03T04:19:54.337Z,0.36
2017-01-03T04:20:16.104Z,0.38
2017-01-03T04:20:37.857Z,0.38
2017-01-03T04:20:59.788Z,0.38
2017-01-03T04:21:21.528Z,0.36
2017-01-03T04:21:46.082Z,0.38
2017-01-03T04:22:07.823Z,0.38
2017-01-03T04:22:29.573Z,0.38
2017-01-03T04:22:51.332Z,0.39
2017-01-03T04:23:13.215Z,0.39
2017-01-03T04:23:34.861Z,0.39
2017-01-03T04:23:59.589Z,0.36
2017-01-03T04:24:21.335Z,0.35
2017-01-03T04:24:48.002Z,0.35
2017-01-03T04:25:09.787Z,0.35
2017-01-03T04:25:58.516Z,0.38
2017-01-03T04:26:20.278Z,0.38
2017-01-03T04:26:42.023Z,0.39
2017-01-03T04:27:03.772Z,0.41
2017-01-03T04:27:25.707Z,0.44
2017-01-03T04:27:52.241Z,0.43
2017-01-03T04:28:15.292Z,0.45
2017-01-03T04:28:37.368Z,0.42
2017-01-03T04:28:59.094Z,0.40
2017-01-03T04:29:20.839Z,0.41
2017-01-03T04:29:42.610Z,0.40
2017-01-03T04:30:04.356Z,0.41
2017-01-03T04:30:30.865Z,0.41
2017-01-03T04:31:46.787Z,0.43
2017-01-03T04:32:08.559Z,0.43
2017-01-03T04:32:30.373Z,0.42
2017-01-03T04:32:52.346Z,0.42
2017-01-03T04:33:14.197Z,0.42
2017-01-03T04:33:35.947Z,0.41
2017-01-03T04:33:57.705Z,0.42
2017-01-03T04:34:20.478Z,0.41
2017-01-03T04:34:42.239Z,0.45
2017-01-03T04:35:08.740Z,0.44
2017-01-03T04:35:30.507Z,0.44
2017-01-03T04:35:52.236Z,0.42
2017-01-03T04:36:13.988Z,0.41
2017-01-03T04:36:35.746Z,0.43
2017-01-03T04:36:57.508Z,0.42
2017-01-03T04:37:19.263Z,0.42
2017-01-03T04:37:41.020Z,0.41
2017-01-03T04:38:02.764Z,0.40
2017-01-03T04:38:29.276Z,0.41
2017-01-03T04:38:51.061Z,0.41
2017-01-03T04:39:12.812Z,0.40
2017-01-03T04:39:34.569Z,0.40
2017-01-03T04:39:57.314Z,0.42
2017-01-03T04:40:19.061Z,0.43
2017-01-03T04:40:41.894Z,0.45
2017-01-03T04:41:03.647Z,0.46
2017-01-03T04:41:25.387Z,0.44
2017-01-03T04:41:47.190Z,0.45
2017-01-03T04:42:08.922Z,0.47
2017-01-03T04:42:31.665Z,0.46
2017-01-03T04:42:53.422Z,0.47
2017-01-03T04:43:15.167Z,0.47
2017-01-03T04:43:36.930Z,0.45
2017-01-03T04:43:58.670Z,0.43
2017-01-03T04:44:20.436Z,0.42
2017-01-03T04:44:42.187Z,0.41
2017-01-03T04:45:03.931Z,0.40
2017-01-03T04:45:25.701Z,0.39
2017-01-03T04:45:47.455Z,0.39
2017-01-03T04:46:09.211Z,0.40
2017-01-03T04:46:57.467Z,0.42
2017-01-03T04:47:19.220Z,0.41
2017-01-03T04:47:40.976Z,0.38
2017-01-03T04:48:02.711Z,0.39
2017-01-03T04:48:24.522Z,0.39
2017-01-03T04:48:46.270Z,0.41
2017-01-03T04:49:08.018Z,0.40
2017-01-03T04:49:29.765Z,0.38
2017-01-03T04:49:56.286Z,0.38
2017-01-03T04:50:18.202Z,0.39
2017-01-03T04:50:40.972Z,0.39
2017-01-03T04:51:07.471Z,0.41
2017-01-03T04:51:29.217Z,0.40
2017-01-03T04:51:50.951Z,0.40
2017-01-03T04:52:12.708Z,0.40
2017-01-03T04:52:35.495Z,0.41
2017-01-03T04:53:28.612Z,0.42
2017-01-03T04:53:51.408Z,0.41
2017-01-03T04:54:13.157Z,0.39
2017-01-03T04:54:35.092Z,0.39
2017-01-03T04:54:56.834Z,0.35
2017-01-03T04:55:18.587Z,0.36
2017-01-03T04:55:40.326Z,0.34
2017-01-03T04:56:02.090Z,0.36
2017-01-03T04:56:23.847Z,0.39
2017-01-03T04:56:46.612Z,0.40
2017-01-03T04:57:08.349Z,0.43
2017-01-03T04:57:30.101Z,0.40
2017-01-03T04:57:51.859Z,0.41
2017-01-03T04:58:13.620Z,0.39
2017-01-03T04:58:35.371Z,0.36
2017-01-03T04:58:57.116Z,0.37
2017-01-03T04:59:19.861Z,0.36
2017-01-03T04:59:41.655Z,0.35
2017-01-03T05:00:03.432Z,0.36
2017-01-03T05:00:25.470Z,0.36
2017-01-03T05:00:50.012Z,0.36
2017-01-03T05:01:12.973Z,0.35
2017-01-03T05:01:34.721Z,0.36
2017-01-03T05:01:56.497Z,0.36
2017-01-03T05:02:18.255Z,0.37
2017-01-03T05:02:39.993Z,0.38
2017-01-03T05:03:06.508Z,0.39
2017-01-03T05:03:30.272Z,0.38
2017-01-03T05:03:52.014Z,0.36
2017-01-03T05:04:13.754Z,0.36
2017-01-03T05:04:35.550Z,0.35
2017-01-03T05:04:57.284Z,0.35
2017-01-03T05:05:19.026Z,0.36
2017-01-03T05:05:40.786Z,0.36
2017-01-03T05:06:07.292Z,0.35
2017-01-03T05:06:29.035Z,0.33
2017-01-03T05:06:51.797Z,0.34
2017-01-03T05:07:13.569Z,0.35
2017-01-03T05:07:40.078Z,0.36
2017-01-03T05:08:01.845Z,0.36
2017-01-03T05:08:23.619Z,0.35
2017-01-03T05:09:11.957Z,0.35
2017-01-03T05:09:34.113Z,0.36
2017-01-03T05:09:56.029Z,0.40
2017-01-03T05:10:18.291Z,0.38
2017-01-03T05:10:40.055Z,0.39
2017-01-03T05:11:01.809Z,0.40
2017-01-03T05:11:23.556Z,0.40
2017-01-03T05:11:45.300Z,0.38